Aérodrome :
LOGIN :

S'inscrire | Disclaimer

   EN    FR    IT 

 










Légende :    VFR   VFR Marginal   IFR   IFR Intensif   IFR Très Intensif
Visi : 
Plafond : 
>= 8 km
>= 3000ft
5 à 8 km
1000 à 3000 ft
1500m à 5 km
500 à 1000 ft
800 à 1500m
200 à 500 ft
< 800m
< 200 ft
Symboles :   Orages  Brouillard  Fortes neiges  Fortes précipitations  Vent > 20 kt
SIGMETs :   Divers  Orages  Givrage  Turbulence  Onde Orograph.  Cendres Volcan.






- Altitude de l'aérodrome : 74 ft
- Code IATA : EIN


EHEH - Eindhoven

DERNIER METAR :
  • 252225Z AUTO 19004KT 9999 SCT085 06/05 Q1018 BLU

METARs EXPIRÉS :
  • 252155Z AUTO 17006KT 9999 OVC046 06/06 Q1018 BLU
  • 252140Z AUTO 17006KT 140V200 9000 BR FEW029 BKN045 05/04 Q1018 BLU
  • 252126Z AUTO 17004KT 140V210 9000 BR SCT045 05/04 Q1018 BLU NOSIG
  • 252055Z AUTO 20005KT 140V250 9999 NCD 06/06 Q1018 BLU NOSIG
  • 252025Z AUTO 20003KT 9999 NCD 06/05 Q1018 BLU NOSIG
  • 251955Z AUTO 19004KT 9999 BKN260 06/05 Q1017 BLU NOSIG

TAF TAF EHEH
Valide du 25 à 18h jusqu'au 27 à 00h UTC


251556Z 2518/2624 19005KT CAVOK
PROB30 2523/2607 4000 BR
BECMG 2603/2606 BKN014
PROB40
TEMPO 2606/2624 BKN010 OVC013



MET'MAP, la Météo Aéronautique d'un coup d'oeil ! - Copyright ORBIFLY Décembre 2007 - Disclaimer

ORBIFLY MET'MAP TEAM :

Programmation & Développement : Alexandra Zaïnal
Sur une idée originale de : Baudouin d'Aumeries
Assistance à la programmation : Marc-Olivier Méhu
Soutien technique & logistique : Manuel Goepfert

Contact : metmap@orbifly.com




SOURCES & CREDITS :

   NOAA